This is the latest recevied weather packets stored in our database for station/object KO5MO-11. If no packets are shown the sender has not sent any weather packets the latest 10 day(s).
| Time | Temp. | Humidity | Pressure | Rain* | Wind** | Luminosity | Snow |
|---|---|---|---|---|---|---|---|
| 1777839872 | 24.44° C | 37% | 1007.5 hPa | - | - | 763 W/m² | - |
| 1777839272 | 25.56° C | 36% | 1007.6 hPa | - | - | 786 W/m² | - |
| 1777838672 | 25.56° C | 41% | 1007.7 hPa | - | - | 782 W/m² | - |
| 1777838072 | 23.89° C | 38% | 1007.8 hPa | - | - | 752 W/m² | - |
| 1777837472 | 23.89° C | 38% | 1008.1 hPa | - | - | 756 W/m² | - |
| 1777836872 | 24.44° C | 37% | 1008.2 hPa | - | - | 760 W/m² | - |
| 1777836272 | 25.56° C | 36% | 1008.3 hPa | - | - | 787 W/m² | - |
| 1777835672 | 25.56° C | 40% | 1008.5 hPa | - | - | 781 W/m² | - |
| 1777835072 | 23.89° C | 38% | 1008.6 hPa | - | - | 751 W/m² | - |
| 1777834472 | 23.89° C | 37% | 1008.8 hPa | - | - | 755 W/m² | - |
| 1777833872 | 24.44° C | 37% | 1009 hPa | - | - | 764 W/m² | - |
| 1777833272 | 26.11° C | 36% | 1009 hPa | - | - | 798 W/m² | - |
| 1777832672 | 24.44° C | 42% | 1009.4 hPa | - | - | 768 W/m² | - |
| 1777832072 | 23.89° C | 37% | 1009.5 hPa | - | - | 752 W/m² | - |
| 1777831472 | 24.44° C | 37% | 1009.6 hPa | - | - | 760 W/m² | - |
| 1777830872 | 25° C | 36% | 1009.8 hPa | - | - | 773 W/m² | - |
| 1777830272 | 26.11° C | 37% | 1009.8 hPa | - | - | 795 W/m² | - |
| 1777829672 | 23.89° C | 39% | 1010 hPa | - | - | 756 W/m² | - |
| 1777829072 | 23.89° C | 37% | 1009.9 hPa | - | - | 752 W/m² | - |
| 1777828472 | 24.44° C | 36% | 1010 hPa | - | - | 762 W/m² | - |
| 1777827872 | 26.11° C | 35% | 1010.1 hPa | - | - | 794 W/m² | - |
| 1777827272 | 25° C | 41% | 1010.1 hPa | - | - | 773 W/m² | - |
| 1777826672 | 23.33° C | 37% | 1010.1 hPa | - | - | 746 W/m² | - |
| 1777826072 | 23.89° C | 36% | 1010 hPa | - | - | 755 W/m² | - |
| 1777825472 | 25° C | 36% | 1010.1 hPa | - | - | 772 W/m² | - |
* Rain since midnight (hover to see other rain measurements)
** Current wind speed in m/s (hover to see current wind gust speed)